createdAt,value
2018-08-17T00:00:15.447Z,19.40
2018-08-17T00:02:43.623Z,19.30
2018-08-17T00:05:12.212Z,19.30
2018-08-17T00:07:40.331Z,19.30
2018-08-17T00:10:08.567Z,19.30
2018-08-17T00:12:37.619Z,19.30
2018-08-17T00:15:06.042Z,19.20
2018-08-17T00:17:34.213Z,19.20
2018-08-17T00:20:02.394Z,19.10
2018-08-17T00:22:30.571Z,19.10
2018-08-17T00:24:58.750Z,19.10
2018-08-17T00:27:26.931Z,19.10
2018-08-17T00:29:55.164Z,19.00
2018-08-17T00:32:23.379Z,19.00
2018-08-17T00:34:51.617Z,18.90
2018-08-17T00:37:19.803Z,18.90
2018-08-17T00:39:47.970Z,18.80
2018-08-17T00:42:16.150Z,18.80
2018-08-17T00:44:44.327Z,18.80
2018-08-17T00:47:12.507Z,18.80
2018-08-17T00:49:40.998Z,18.80
2018-08-17T00:52:09.174Z,18.70
2018-08-17T00:54:37.350Z,18.60
2018-08-17T00:57:05.538Z,18.60
2018-08-17T00:59:33.707Z,18.60
2018-08-17T01:02:02.178Z,18.70
2018-08-17T01:04:30.350Z,18.70
2018-08-17T01:06:58.531Z,18.60
2018-08-17T01:09:26.707Z,18.60
2018-08-17T01:11:54.902Z,18.60
2018-08-17T01:14:23.112Z,18.50
2018-08-17T01:16:51.340Z,18.50
2018-08-17T01:19:19.532Z,18.40
2018-08-17T01:21:47.746Z,18.50
2018-08-17T01:24:15.913Z,18.50
2018-08-17T01:26:44.088Z,18.50
2018-08-17T01:29:12.261Z,18.40
2018-08-17T01:31:40.448Z,18.40
2018-08-17T01:34:08.618Z,18.40
2018-08-17T01:36:36.906Z,18.30
2018-08-17T01:39:07.018Z,18.30
2018-08-17T01:41:35.354Z,18.30
2018-08-17T01:44:03.871Z,18.30
2018-08-17T01:46:32.134Z,18.30
2018-08-17T01:49:00.318Z,18.30
2018-08-17T01:51:28.495Z,18.30
2018-08-17T01:53:56.730Z,18.20
2018-08-17T01:56:25.422Z,18.20
2018-08-17T01:58:53.624Z,18.20
2018-08-17T02:01:21.849Z,18.20
2018-08-17T02:03:50.055Z,18.10
2018-08-17T02:06:18.230Z,18.10
2018-08-17T02:08:46.827Z,18.10
2018-08-17T02:11:15.002Z,18.00
2018-08-17T02:13:43.176Z,18.00
2018-08-17T02:16:11.347Z,17.90
2018-08-17T02:18:39.531Z,18.00
2018-08-17T02:21:07.774Z,17.90
2018-08-17T02:23:35.950Z,17.90
2018-08-17T02:26:04.118Z,17.90
2018-08-17T02:28:32.303Z,17.80
2018-08-17T02:31:00.470Z,17.80
2018-08-17T02:33:28.643Z,17.80
2018-08-17T02:35:56.840Z,17.80
2018-08-17T02:38:25.125Z,17.90
2018-08-17T02:40:53.332Z,17.80
2018-08-17T02:43:21.520Z,17.80
2018-08-17T02:45:49.683Z,17.70
2018-08-17T02:48:17.861Z,17.70
2018-08-17T02:50:46.394Z,17.70
2018-08-17T02:53:14.563Z,17.70
2018-08-17T02:55:42.730Z,17.60
2018-08-17T02:58:10.911Z,17.60
2018-08-17T03:00:39.079Z,17.60
2018-08-17T03:03:07.255Z,17.60
2018-08-17T03:05:35.430Z,17.50
2018-08-17T03:08:03.619Z,17.50
2018-08-17T03:10:31.818Z,17.50
2018-08-17T03:13:00.011Z,17.50
2018-08-17T03:15:28.179Z,17.50
2018-08-17T03:17:56.397Z,17.50
2018-08-17T03:20:24.607Z,17.50
2018-08-17T03:22:52.808Z,17.40
2018-08-17T03:25:20.991Z,17.50
2018-08-17T03:27:49.166Z,17.40
2018-08-17T03:30:17.330Z,17.50
2018-08-17T03:32:45.514Z,17.40
2018-08-17T03:35:13.687Z,17.40
2018-08-17T03:37:41.858Z,17.40
2018-08-17T03:40:10.026Z,17.30
2018-08-17T03:42:38.208Z,17.40
2018-08-17T03:45:06.382Z,17.30
2018-08-17T03:47:34.557Z,17.30
2018-08-17T03:50:02.726Z,17.30
2018-08-17T03:52:30.907Z,17.30
2018-08-17T03:54:59.078Z,17.30
2018-08-17T03:57:27.308Z,17.30
2018-08-17T03:59:55.516Z,17.30
2018-08-17T04:02:23.744Z,17.30
2018-08-17T04:04:52.114Z,17.20
2018-08-17T04:07:20.315Z,17.30
2018-08-17T04:09:48.496Z,17.20
2018-08-17T04:12:16.678Z,17.20
2018-08-17T04:14:45.274Z,17.20
2018-08-17T04:17:13.455Z,17.30
2018-08-17T04:19:42.001Z,17.20
2018-08-17T04:22:10.166Z,17.20
2018-08-17T04:24:38.362Z,17.20
2018-08-17T04:27:06.559Z,17.10
2018-08-17T04:29:34.774Z,17.10
2018-08-17T04:32:02.963Z,17.10
2018-08-17T04:34:31.134Z,17.10
2018-08-17T04:36:59.375Z,17.10
2018-08-17T04:39:27.596Z,17.10
2018-08-17T04:41:55.820Z,17.20
2018-08-17T04:44:24.032Z,17.20
2018-08-17T04:46:52.272Z,17.10
2018-08-17T04:49:20.510Z,17.20
2018-08-17T04:51:48.811Z,17.30
2018-08-17T04:54:16.986Z,17.30
2018-08-17T04:56:46.000Z,17.30
2018-08-17T04:59:14.174Z,17.30
2018-08-17T05:01:42.362Z,17.40
2018-08-17T05:04:10.571Z,17.40
2018-08-17T05:06:38.778Z,17.50
2018-08-17T05:09:07.325Z,17.60
2018-08-17T05:11:35.470Z,17.60
2018-08-17T05:14:03.771Z,17.60
2018-08-17T05:16:31.930Z,17.70
2018-08-17T05:19:00.110Z,17.70
2018-08-17T05:21:28.311Z,17.80
2018-08-17T05:23:56.516Z,17.80
2018-08-17T05:26:24.730Z,17.90
2018-08-17T05:28:52.925Z,17.90
2018-08-17T05:31:21.135Z,17.90
2018-08-17T05:33:49.370Z,18.00
2018-08-17T05:36:17.546Z,18.00
2018-08-17T05:38:46.422Z,18.10
2018-08-17T05:41:14.593Z,18.10
2018-08-17T05:43:42.790Z,18.20
2018-08-17T05:46:10.966Z,18.20
2018-08-17T05:48:39.138Z,18.30
2018-08-17T05:51:07.634Z,18.30
2018-08-17T05:53:35.841Z,18.40
2018-08-17T05:56:04.011Z,18.50
2018-08-17T05:58:32.210Z,18.60
2018-08-17T06:01:00.406Z,18.70
2018-08-17T06:03:28.615Z,18.70
2018-08-17T06:05:56.810Z,18.80
2018-08-17T06:08:25.013Z,18.80
2018-08-17T06:10:53.294Z,18.90
2018-08-17T06:13:21.413Z,18.90
2018-08-17T06:15:49.628Z,19.00
2018-08-17T06:18:17.828Z,19.10
2018-08-17T06:20:46.001Z,19.30
2018-08-17T06:23:14.683Z,19.40
2018-08-17T06:25:42.867Z,19.50
2018-08-17T06:28:11.043Z,19.50
2018-08-17T06:30:39.548Z,19.60
2018-08-17T06:33:07.998Z,19.70
2018-08-17T06:35:36.198Z,19.70
2018-08-17T06:38:04.475Z,19.80
2018-08-17T06:40:32.662Z,19.80
2018-08-17T06:43:00.851Z,19.90
2018-08-17T06:45:29.086Z,20.10
2018-08-17T06:47:57.292Z,20.20
2018-08-17T06:50:25.539Z,20.30
2018-08-17T06:52:53.723Z,20.50
2018-08-17T06:55:21.931Z,20.50
2018-08-17T06:57:50.106Z,20.60
2018-08-17T07:00:18.317Z,20.70
2018-08-17T07:02:47.027Z,20.80
2018-08-17T07:05:15.467Z,20.70
2018-08-17T07:07:43.950Z,20.80
2018-08-17T07:10:13.298Z,20.80
2018-08-17T07:12:42.189Z,20.90
2018-08-17T07:15:10.816Z,21.00
2018-08-17T07:17:39.459Z,21.10
2018-08-17T07:20:09.462Z,21.10
2018-08-17T07:22:37.959Z,21.20
2018-08-17T07:25:06.223Z,21.40
2018-08-17T07:27:34.542Z,21.40
2018-08-17T07:30:02.752Z,21.50
2018-08-17T07:32:31.149Z,21.50
2018-08-17T07:34:59.352Z,21.70
2018-08-17T07:37:27.545Z,21.80
2018-08-17T07:39:55.746Z,21.90
2018-08-17T07:42:23.923Z,21.90
2018-08-17T07:44:52.119Z,22.10
2018-08-17T07:47:20.287Z,22.30
2018-08-17T07:49:49.142Z,22.50
2018-08-17T07:52:17.355Z,22.60
2018-08-17T07:54:45.574Z,22.70
2018-08-17T07:57:13.734Z,22.80
2018-08-17T07:59:41.903Z,23.00
2018-08-17T08:02:10.315Z,23.00
2018-08-17T08:04:38.698Z,23.10
2018-08-17T08:07:06.934Z,23.10
2018-08-17T08:09:35.152Z,23.20
2018-08-17T08:12:03.356Z,23.30
2018-08-17T08:14:31.569Z,23.10
2018-08-17T08:16:59.772Z,23.10
2018-08-17T08:19:28.493Z,23.30
2018-08-17T08:21:56.919Z,23.30
2018-08-17T08:24:25.107Z,23.40
2018-08-17T08:26:53.310Z,23.50
2018-08-17T08:29:21.715Z,23.70
2018-08-17T08:31:49.894Z,23.80
2018-08-17T08:34:18.772Z,23.90
2018-08-17T08:36:46.994Z,24.00
2018-08-17T08:39:15.211Z,24.20
2018-08-17T08:41:43.398Z,24.40
2018-08-17T08:44:11.615Z,24.30
2018-08-17T08:46:39.819Z,24.40
2018-08-17T08:49:08.023Z,24.60
2018-08-17T08:51:36.260Z,24.70
2018-08-17T08:54:04.501Z,24.80
2018-08-17T08:56:32.691Z,25.00
2018-08-17T08:59:01.003Z,25.10
2018-08-17T09:01:29.183Z,25.30
2018-08-17T09:03:57.735Z,25.40
2018-08-17T09:06:25.906Z,25.60
2018-08-17T09:08:54.074Z,25.60
2018-08-17T09:11:22.261Z,25.70
2018-08-17T09:13:51.214Z,25.90
2018-08-17T09:16:19.331Z,25.90
2018-08-17T09:18:47.506Z,26.10
2018-08-17T09:21:15.683Z,26.10
2018-08-17T09:23:43.860Z,26.10
2018-08-17T09:26:12.035Z,26.10
2018-08-17T09:28:40.231Z,26.10
2018-08-17T09:31:08.675Z,26.30
2018-08-17T09:33:37.240Z,26.30
2018-08-17T09:36:05.582Z,26.40
2018-08-17T09:38:33.697Z,26.50
2018-08-17T09:41:01.883Z,26.60
2018-08-17T09:43:30.063Z,26.70
2018-08-17T09:45:58.239Z,26.80
2018-08-17T09:48:26.423Z,26.90
2018-08-17T09:50:54.606Z,27.00
2018-08-17T09:53:22.783Z,27.10
2018-08-17T09:55:50.955Z,27.20
2018-08-17T09:58:19.130Z,27.20
2018-08-17T10:00:52.614Z,27.30
2018-08-17T10:03:26.266Z,27.30
2018-08-17T10:05:59.807Z,27.40
2018-08-17T10:08:33.511Z,27.50
2018-08-17T10:11:01.752Z,27.60
2018-08-17T10:13:29.938Z,27.60
2018-08-17T10:15:58.115Z,27.70
2018-08-17T10:18:30.646Z,27.70
2018-08-17T10:20:58.906Z,27.90
2018-08-17T10:23:27.004Z,28.00
2018-08-17T10:25:55.175Z,28.10
2018-08-17T10:28:23.375Z,28.10
2018-08-17T10:30:51.554Z,28.20
2018-08-17T10:33:19.790Z,28.20
2018-08-17T10:35:48.437Z,28.30
2018-08-17T10:38:16.614Z,28.40
2018-08-17T10:40:44.834Z,28.60
2018-08-17T10:43:13.011Z,28.80
2018-08-17T10:45:41.236Z,28.90
2018-08-17T10:48:09.619Z,28.30
2018-08-17T10:50:37.831Z,28.30
2018-08-17T10:53:06.020Z,28.50
2018-08-17T10:55:41.421Z,28.40
2018-08-17T10:58:11.603Z,28.60
2018-08-17T11:00:39.774Z,28.40
2018-08-17T11:03:08.334Z,28.40
2018-08-17T11:05:36.509Z,28.80
2018-08-17T11:08:05.039Z,28.90
2018-08-17T11:10:33.214Z,29.00
2018-08-17T11:13:01.538Z,29.20
2018-08-17T11:15:29.723Z,29.20
2018-08-17T11:17:57.931Z,29.30
2018-08-17T11:20:26.122Z,28.90
2018-08-17T11:22:54.399Z,28.70
2018-08-17T11:25:22.515Z,29.10
2018-08-17T11:27:51.308Z,29.30
2018-08-17T11:30:19.562Z,29.40
2018-08-17T11:32:47.740Z,29.80
2018-08-17T11:35:16.328Z,30.10
2018-08-17T11:37:44.511Z,30.30
2018-08-17T11:40:13.414Z,30.40
2018-08-17T11:42:45.009Z,30.40
2018-08-17T11:45:24.655Z,30.50
2018-08-17T11:47:53.545Z,30.60
2018-08-17T11:50:22.853Z,30.70
2018-08-17T11:52:56.230Z,30.70
2018-08-17T11:55:25.443Z,30.80
2018-08-17T11:57:53.918Z,30.40
2018-08-17T12:00:22.131Z,30.10
2018-08-17T12:02:50.341Z,30.30
2018-08-17T12:05:18.544Z,30.50
2018-08-17T12:07:47.424Z,30.60
2018-08-17T12:10:15.667Z,30.70
2018-08-17T12:12:44.771Z,30.90
2018-08-17T12:15:13.583Z,31.10
2018-08-17T12:17:41.767Z,31.30
2018-08-17T12:20:09.946Z,31.30
2018-08-17T12:22:38.126Z,31.50
2018-08-17T12:25:07.436Z,31.70
2018-08-17T12:27:35.562Z,31.70
2018-08-17T12:30:04.366Z,31.80
2018-08-17T12:32:32.539Z,32.00
2018-08-17T12:35:00.838Z,32.00
2018-08-17T12:37:29.133Z,31.80
2018-08-17T12:39:57.346Z,31.70
2018-08-17T12:42:25.532Z,31.70
2018-08-17T12:44:57.526Z,31.50
2018-08-17T12:47:26.167Z,31.60
2018-08-17T12:49:54.691Z,31.80
2018-08-17T12:52:22.963Z,31.70
2018-08-17T12:54:51.686Z,31.80
2018-08-17T12:57:20.339Z,31.90
2018-08-17T12:59:48.538Z,31.90
2018-08-17T13:02:16.710Z,32.00
2018-08-17T13:04:46.085Z,31.90
2018-08-17T13:07:14.256Z,31.90
2018-08-17T13:09:42.451Z,31.90
2018-08-17T13:12:10.641Z,32.00
2018-08-17T13:14:38.868Z,32.10
2018-08-17T13:17:08.110Z,31.70
2018-08-17T13:19:36.328Z,31.90
2018-08-17T13:22:04.552Z,32.10
2018-08-17T13:24:32.756Z,32.30
2018-08-17T13:27:00.947Z,32.30
2018-08-17T13:29:29.127Z,32.00
2018-08-17T13:31:57.572Z,31.80
2018-08-17T13:34:25.766Z,31.60
2018-08-17T13:36:53.949Z,31.90
2018-08-17T13:39:22.116Z,32.10
2018-08-17T13:41:50.339Z,32.00
2018-08-17T13:44:18.826Z,32.10
2018-08-17T13:46:47.015Z,32.20
2018-08-17T13:49:15.202Z,32.40
2018-08-17T13:51:43.883Z,32.50
2018-08-17T13:54:12.074Z,32.50
2018-08-17T13:56:40.363Z,32.50
2018-08-17T13:59:09.099Z,32.50
2018-08-17T14:01:37.332Z,32.50
2018-08-17T14:04:05.531Z,32.30
2018-08-17T14:06:33.740Z,32.40
2018-08-17T14:09:01.911Z,32.00
2018-08-17T14:11:30.159Z,32.00
2018-08-17T14:13:58.294Z,32.10
2018-08-17T14:16:26.771Z,32.30
2018-08-17T14:18:54.948Z,32.20
2018-08-17T14:21:23.162Z,32.30
2018-08-17T14:23:51.597Z,32.20
2018-08-17T14:26:19.771Z,32.20
2018-08-17T14:28:47.955Z,32.20
2018-08-17T14:31:16.131Z,32.30
2018-08-17T14:33:44.302Z,32.30
2018-08-17T14:36:13.586Z,32.30
2018-08-17T14:38:41.770Z,32.20
2018-08-17T14:41:09.951Z,32.20
2018-08-17T14:43:38.148Z,32.10
2018-08-17T14:46:06.380Z,32.10
2018-08-17T14:48:34.596Z,32.00
2018-08-17T14:51:02.802Z,32.00
2018-08-17T14:53:31.003Z,31.90
2018-08-17T14:55:59.196Z,31.90
2018-08-17T14:58:27.366Z,31.90
2018-08-17T15:00:55.552Z,31.80
2018-08-17T15:03:23.995Z,31.80
2018-08-17T15:05:52.179Z,31.70
2018-08-17T15:08:20.390Z,31.60
2018-08-17T15:10:48.595Z,31.60
2018-08-17T15:13:16.810Z,31.60
2018-08-17T15:15:45.018Z,31.50
2018-08-17T15:18:13.209Z,31.50
2018-08-17T15:20:41.465Z,31.50
2018-08-17T15:23:09.756Z,31.40
2018-08-17T15:25:38.459Z,31.30
2018-08-17T15:28:06.687Z,31.30
2018-08-17T15:30:34.933Z,31.20
2018-08-17T15:33:03.160Z,31.20
2018-08-17T15:35:31.939Z,31.20
2018-08-17T15:38:00.114Z,31.10
2018-08-17T15:40:28.295Z,31.10
2018-08-17T15:42:58.586Z,31.00
2018-08-17T15:45:26.763Z,30.80
2018-08-17T15:47:54.959Z,30.80
2018-08-17T15:50:23.157Z,30.60
2018-08-17T15:52:51.343Z,30.60
2018-08-17T15:55:19.567Z,30.60
2018-08-17T15:57:47.905Z,30.50
2018-08-17T16:00:18.309Z,30.50
2018-08-17T16:02:46.667Z,30.50
2018-08-17T16:05:14.871Z,30.50
2018-08-17T16:07:43.152Z,30.40
2018-08-17T16:10:13.556Z,30.40
2018-08-17T16:12:41.780Z,30.30
2018-08-17T16:15:11.036Z,30.20
2018-08-17T16:17:39.432Z,30.10
2018-08-17T16:20:08.983Z,30.10
2018-08-17T16:22:37.198Z,30.00
2018-08-17T16:25:05.875Z,30.00
2018-08-17T16:27:34.181Z,29.90
2018-08-17T16:30:02.350Z,29.90
2018-08-17T16:32:30.631Z,29.90
2018-08-17T16:34:58.880Z,29.80
2018-08-17T16:37:27.080Z,29.80
2018-08-17T16:39:56.011Z,29.80
2018-08-17T16:42:29.650Z,29.80
2018-08-17T16:44:57.869Z,29.80
2018-08-17T16:47:26.393Z,29.70
2018-08-17T16:49:54.855Z,29.70
2018-08-17T16:52:23.039Z,29.70
2018-08-17T16:54:51.218Z,29.60
2018-08-17T16:57:19.539Z,29.60
2018-08-17T16:59:47.902Z,29.50
2018-08-17T17:02:16.105Z,29.50
2018-08-17T17:04:44.484Z,29.50
2018-08-17T17:07:12.672Z,29.30
2018-08-17T17:09:40.846Z,29.20
2018-08-17T17:12:17.086Z,29.20
2018-08-17T17:14:45.574Z,29.10
2018-08-17T17:17:14.070Z,29.00
2018-08-17T17:19:42.302Z,28.80
2018-08-17T17:22:10.516Z,28.70
2018-08-17T17:24:38.753Z,28.60
2018-08-17T17:27:07.040Z,28.40
2018-08-17T17:29:36.581Z,28.40
2018-08-17T17:32:06.005Z,28.20
2018-08-17T17:34:34.288Z,28.20
2018-08-17T17:37:02.487Z,28.10
2018-08-17T17:39:30.666Z,27.90
2018-08-17T17:41:58.830Z,27.70
2018-08-17T17:44:27.031Z,27.60
2018-08-17T17:46:55.458Z,27.40
2018-08-17T17:49:23.919Z,27.30
2018-08-17T17:51:52.106Z,27.20
2018-08-17T17:54:22.715Z,27.10
2018-08-17T17:56:58.307Z,27.00
2018-08-17T17:59:26.527Z,26.90
2018-08-17T18:01:54.741Z,26.80
2018-08-17T18:04:22.968Z,26.70
2018-08-17T18:06:51.180Z,26.60
2018-08-17T18:09:19.435Z,26.50
2018-08-17T18:11:47.653Z,26.40
2018-08-17T18:14:15.895Z,26.30
2018-08-17T18:16:44.071Z,26.20
2018-08-17T18:19:12.278Z,26.20
2018-08-17T18:21:40.447Z,26.00
2018-08-17T18:24:11.102Z,25.90
2018-08-17T18:26:45.722Z,25.90
2018-08-17T18:29:13.898Z,25.80
2018-08-17T18:31:42.075Z,25.70
2018-08-17T18:34:10.590Z,25.60
2018-08-17T18:36:38.918Z,25.40
2018-08-17T18:39:10.127Z,25.30
2018-08-17T18:41:38.346Z,25.30
2018-08-17T18:44:06.543Z,25.20
2018-08-17T18:46:34.980Z,25.20
2018-08-17T18:49:03.371Z,25.10
2018-08-17T18:51:31.567Z,25.00
2018-08-17T18:53:59.922Z,25.00
2018-08-17T18:56:28.211Z,24.90
2018-08-17T18:58:56.482Z,24.80
2018-08-17T19:01:24.667Z,24.80
2018-08-17T19:03:53.368Z,24.60
2018-08-17T19:06:21.546Z,24.60
2018-08-17T19:08:49.724Z,24.50
2018-08-17T19:11:17.927Z,24.50
2018-08-17T19:13:46.099Z,24.40
2018-08-17T19:16:14.307Z,24.40
2018-08-17T19:18:42.442Z,24.30
2018-08-17T19:21:13.125Z,24.20
2018-08-17T19:23:41.538Z,24.20
2018-08-17T19:26:10.470Z,24.10
2018-08-17T19:28:38.851Z,24.10
2018-08-17T19:31:07.361Z,24.10
2018-08-17T19:33:35.539Z,24.00
2018-08-17T19:36:04.297Z,24.00
2018-08-17T19:38:37.571Z,23.90
2018-08-17T19:41:05.751Z,23.90
2018-08-17T19:43:33.929Z,23.80
2018-08-17T19:46:02.254Z,23.70
2018-08-17T19:48:30.570Z,23.70
2018-08-17T19:50:58.762Z,23.60
2018-08-17T19:53:26.975Z,23.60
2018-08-17T19:55:55.174Z,23.50
2018-08-17T19:58:23.826Z,23.50
2018-08-17T20:00:51.994Z,23.50
2018-08-17T20:03:20.443Z,23.40
2018-08-17T20:05:48.627Z,23.40
2018-08-17T20:08:16.790Z,23.30
2018-08-17T20:10:44.982Z,23.50
2018-08-17T20:13:13.197Z,23.50
2018-08-17T20:15:41.379Z,23.50
2018-08-17T20:18:09.595Z,23.40
2018-08-17T20:20:37.768Z,23.30
2018-08-17T20:23:05.966Z,23.30
2018-08-17T20:25:34.128Z,23.20
2018-08-17T20:28:02.298Z,23.10
2018-08-17T20:30:30.799Z,23.10
2018-08-17T20:32:58.990Z,23.00
2018-08-17T20:35:27.490Z,23.00
2018-08-17T20:37:55.667Z,22.90
2018-08-17T20:40:23.834Z,22.90
2018-08-17T20:42:52.069Z,22.80
2018-08-17T20:45:23.991Z,22.80
2018-08-17T20:47:52.158Z,22.70
2018-08-17T20:50:20.335Z,22.70
2018-08-17T20:52:58.837Z,22.60
2018-08-17T20:55:27.099Z,22.60
2018-08-17T20:57:56.319Z,22.50
2018-08-17T21:00:26.128Z,22.50
2018-08-17T21:02:54.606Z,22.40
2018-08-17T21:05:22.922Z,22.40
2018-08-17T21:07:51.243Z,22.50
2018-08-17T21:10:19.623Z,22.50
2018-08-17T21:12:48.631Z,22.50
2018-08-17T21:15:17.199Z,22.50
2018-08-17T21:17:45.375Z,22.60
2018-08-17T21:20:13.567Z,22.50
2018-08-17T21:22:41.756Z,22.40
2018-08-17T21:25:09.930Z,22.40
2018-08-17T21:27:38.114Z,22.40
2018-08-17T21:30:06.734Z,22.20
2018-08-17T21:32:35.838Z,22.20
2018-08-17T21:35:04.414Z,22.30
2018-08-17T21:37:32.599Z,22.30
2018-08-17T21:40:00.832Z,22.30
2018-08-17T21:42:29.053Z,22.40
2018-08-17T21:44:57.308Z,22.40
2018-08-17T21:47:25.475Z,22.50
2018-08-17T21:49:54.766Z,22.50
2018-08-17T21:52:24.297Z,22.50
2018-08-17T21:54:52.474Z,22.50
2018-08-17T21:57:21.198Z,22.40
2018-08-17T21:59:50.861Z,22.50
2018-08-17T22:02:19.761Z,22.50
2018-08-17T22:04:47.945Z,22.50
2018-08-17T22:07:23.363Z,22.50
2018-08-17T22:09:52.253Z,22.60
2018-08-17T22:12:20.576Z,22.50
2018-08-17T22:14:49.417Z,22.50
2018-08-17T22:17:31.338Z,22.50
2018-08-17T22:20:00.520Z,22.60
2018-08-17T22:22:28.713Z,22.50
2018-08-17T22:24:58.281Z,22.50
2018-08-17T22:27:27.582Z,22.60
2018-08-17T22:29:56.995Z,22.50
2018-08-17T22:32:25.382Z,22.50
2018-08-17T22:34:53.889Z,22.50
2018-08-17T22:37:22.019Z,22.40
2018-08-17T22:39:50.198Z,22.40
2018-08-17T22:42:19.927Z,22.30
2018-08-17T22:44:48.618Z,22.30
2018-08-17T22:47:19.117Z,22.30
2018-08-17T22:49:47.890Z,22.30
2018-08-17T22:52:16.140Z,22.20
2018-08-17T22:54:49.745Z,22.20
2018-08-17T22:57:18.376Z,22.10
2018-08-17T22:59:46.592Z,22.10
2018-08-17T23:02:14.931Z,22.00
2018-08-17T23:04:43.123Z,22.00
2018-08-17T23:07:11.308Z,22.00
2018-08-17T23:09:39.764Z,22.10
2018-08-17T23:12:07.954Z,22.10
2018-08-17T23:14:36.123Z,22.00
2018-08-17T23:17:04.322Z,21.90
2018-08-17T23:19:32.499Z,21.90
2018-08-17T23:22:00.691Z,21.80
2018-08-17T23:24:28.889Z,21.80
2018-08-17T23:26:57.283Z,21.80
2018-08-17T23:29:25.783Z,21.80
2018-08-17T23:31:54.058Z,21.80
2018-08-17T23:34:22.290Z,21.80
2018-08-17T23:36:50.480Z,21.80
2018-08-17T23:39:18.689Z,21.70
2018-08-17T23:41:46.901Z,21.70
2018-08-17T23:44:15.101Z,21.70
2018-08-17T23:46:43.312Z,21.70
2018-08-17T23:49:11.499Z,21.70
2018-08-17T23:51:39.683Z,21.60
2018-08-17T23:54:07.847Z,21.60
2018-08-17T23:56:36.050Z,21.60
2018-08-17T23:59:04.214Z,21.60
